sensor_id;sensor_type;location;lat;lon;timestamp;P1;durP1;ratioP1;P2;durP2;ratioP2
66597;SDS011;57424;53.128;6.406;2022-12-11T00:02:17;5.53;;;3.80;;
66597;SDS011;57424;53.128;6.406;2022-12-11T00:04:42;5.10;;;3.80;;
66597;SDS011;57424;53.128;6.406;2022-12-11T00:07:08;5.30;;;3.45;;
66597;SDS011;57424;53.128;6.406;2022-12-11T00:09:33;5.47;;;3.90;;
66597;SDS011;57424;53.128;6.406;2022-12-11T00:11:59;6.18;;;3.90;;
66597;SDS011;57424;53.128;6.406;2022-12-11T00:14:26;4.75;;;3.72;;
66597;SDS011;57424;53.128;6.406;2022-12-11T00:16:53;6.07;;;4.20;;
66597;SDS011;57424;53.128;6.406;2022-12-11T00:19:18;4.68;;;3.47;;
66597;SDS011;57424;53.128;6.406;2022-12-11T00:21:44;5.05;;;3.60;;
66597;SDS011;57424;53.128;6.406;2022-12-11T00:24:09;5.53;;;3.88;;
66597;SDS011;57424;53.128;6.406;2022-12-11T00:26:35;5.45;;;3.80;;
66597;SDS011;57424;53.128;6.406;2022-12-11T00:29:01;5.55;;;3.72;;
66597;SDS011;57424;53.128;6.406;2022-12-11T00:31:26;4.78;;;3.67;;
66597;SDS011;57424;53.128;6.406;2022-12-11T00:33:52;5.70;;;3.47;;
66597;SDS011;57424;53.128;6.406;2022-12-11T00:36:19;5.63;;;3.50;;
66597;SDS011;57424;53.128;6.406;2022-12-11T00:38:47;5.90;;;3.70;;
66597;SDS011;57424;53.128;6.406;2022-12-11T00:41:13;6.00;;;3.67;;
66597;SDS011;57424;53.128;6.406;2022-12-11T00:43:39;5.40;;;3.80;;
66597;SDS011;57424;53.128;6.406;2022-12-11T00:46:05;5.97;;;3.80;;
66597;SDS011;57424;53.128;6.406;2022-12-11T00:48:31;5.10;;;3.83;;
66597;SDS011;57424;53.128;6.406;2022-12-11T00:50:57;4.95;;;3.33;;
66597;SDS011;57424;53.128;6.406;2022-12-11T00:53:23;5.78;;;3.85;;
66597;SDS011;57424;53.128;6.406;2022-12-11T00:55:49;6.10;;;4.07;;
66597;SDS011;57424;53.128;6.406;2022-12-11T00:58:14;5.40;;;3.60;;
66597;SDS011;57424;53.128;6.406;2022-12-11T01:00:41;5.07;;;3.42;;
66597;SDS011;57424;53.128;6.406;2022-12-11T01:03:07;5.88;;;3.42;;
66597;SDS011;57424;53.128;6.406;2022-12-11T01:05:34;5.88;;;3.80;;
66597;SDS011;57424;53.128;6.406;2022-12-11T01:08:00;4.82;;;3.60;;
66597;SDS011;57424;53.128;6.406;2022-12-11T01:10:25;5.40;;;3.38;;
66597;SDS011;57424;53.128;6.406;2022-12-11T01:12:58;5.20;;;3.30;;
66597;SDS011;57424;53.128;6.406;2022-12-11T01:15:31;5.30;;;3.58;;
66597;SDS011;57424;53.128;6.406;2022-12-11T01:18:02;5.32;;;3.50;;
66597;SDS011;57424;53.128;6.406;2022-12-11T01:20:27;5.35;;;3.47;;
66597;SDS011;57424;53.128;6.406;2022-12-11T01:22:54;5.07;;;3.58;;
66597;SDS011;57424;53.128;6.406;2022-12-11T01:25:21;5.28;;;3.50;;
66597;SDS011;57424;53.128;6.406;2022-12-11T01:27:48;5.03;;;3.60;;
66597;SDS011;57424;53.128;6.406;2022-12-11T01:30:16;5.28;;;3.58;;
66597;SDS011;57424;53.128;6.406;2022-12-11T01:32:42;4.60;;;3.20;;
66597;SDS011;57424;53.128;6.406;2022-12-11T01:35:08;7.13;;;3.85;;
66597;SDS011;57424;53.128;6.406;2022-12-11T01:37:35;5.80;;;3.78;;
66597;SDS011;57424;53.128;6.406;2022-12-11T01:40:01;4.82;;;3.65;;
66597;SDS011;57424;53.128;6.406;2022-12-11T01:42:27;4.50;;;3.10;;
66597;SDS011;57424;53.128;6.406;2022-12-11T01:47:37;6.20;;;3.72;;
66597;SDS011;57424;53.128;6.406;2022-12-11T01:50:03;6.00;;;3.33;;
66597;SDS011;57424;53.128;6.406;2022-12-11T01:52:29;6.07;;;3.53;;
66597;SDS011;57424;53.128;6.406;2022-12-11T01:54:55;5.03;;;3.45;;
66597;SDS011;57424;53.128;6.406;2022-12-11T01:57:20;5.85;;;3.92;;
66597;SDS011;57424;53.128;6.406;2022-12-11T01:59:46;5.70;;;3.50;;
66597;SDS011;57424;53.128;6.406;2022-12-11T02:02:19;5.25;;;3.53;;
66597;SDS011;57424;53.128;6.406;2022-12-11T02:04:48;5.53;;;3.50;;
66597;SDS011;57424;53.128;6.406;2022-12-11T02:07:14;4.82;;;3.42;;
66597;SDS011;57424;53.128;6.406;2022-12-11T02:09:40;5.57;;;3.45;;
66597;SDS011;57424;53.128;6.406;2022-12-11T02:12:24;5.03;;;3.50;;
66597;SDS011;57424;53.128;6.406;2022-12-11T02:15:10;5.35;;;3.40;;
66597;SDS011;57424;53.128;6.406;2022-12-11T02:26:32;5.13;;;3.60;;
66597;SDS011;57424;53.128;6.406;2022-12-11T02:29:10;4.72;;;3.22;;
66597;SDS011;57424;53.128;6.406;2022-12-11T02:31:42;5.15;;;3.60;;
66597;SDS011;57424;53.128;6.406;2022-12-11T02:34:17;6.03;;;3.47;;
66597;SDS011;57424;53.128;6.406;2022-12-11T02:36:58;5.40;;;3.53;;
66597;SDS011;57424;53.128;6.406;2022-12-11T02:39:29;5.55;;;3.60;;
66597;SDS011;57424;53.128;6.406;2022-12-11T02:41:58;5.18;;;3.55;;
66597;SDS011;57424;53.128;6.406;2022-12-11T02:44:25;5.88;;;3.38;;
66597;SDS011;57424;53.128;6.406;2022-12-11T02:46:53;4.55;;;3.28;;
66597;SDS011;57424;53.128;6.406;2022-12-11T02:49:20;4.80;;;3.30;;
66597;SDS011;57424;53.128;6.406;2022-12-11T02:51:48;5.63;;;3.70;;
66597;SDS011;57424;53.128;6.406;2022-12-11T02:54:17;5.35;;;3.22;;
66597;SDS011;57424;53.128;6.406;2022-12-11T02:56:47;4.78;;;3.13;;
66597;SDS011;57424;53.128;6.406;2022-12-11T02:59:23;5.25;;;3.58;;
66597;SDS011;57424;53.128;6.406;2022-12-11T03:01:53;5.65;;;3.47;;
66597;SDS011;57424;53.128;6.406;2022-12-11T03:04:18;4.90;;;3.17;;
66597;SDS011;57424;53.128;6.406;2022-12-11T03:06:48;4.97;;;3.20;;
66597;SDS011;57424;53.128;6.406;2022-12-11T03:09:18;5.50;;;3.85;;
66597;SDS011;57424;53.128;6.406;2022-12-11T03:11:44;5.45;;;3.55;;
66597;SDS011;57424;53.128;6.406;2022-12-11T03:14:10;6.13;;;3.58;;
66597;SDS011;57424;53.128;6.406;2022-12-11T03:16:37;5.18;;;3.50;;
66597;SDS011;57424;53.128;6.406;2022-12-11T03:19:23;4.65;;;3.20;;
66597;SDS011;57424;53.128;6.406;2022-12-11T03:24:40;5.70;;;3.88;;
66597;SDS011;57424;53.128;6.406;2022-12-11T03:27:24;5.85;;;3.75;;
66597;SDS011;57424;53.128;6.406;2022-12-11T03:30:04;5.10;;;3.40;;
66597;SDS011;57424;53.128;6.406;2022-12-11T03:32:38;5.47;;;3.70;;
66597;SDS011;57424;53.128;6.406;2022-12-11T03:35:28;5.20;;;3.58;;
66597;SDS011;57424;53.128;6.406;2022-12-11T03:38:02;4.45;;;3.42;;
66597;SDS011;57424;53.128;6.406;2022-12-11T03:40:32;5.10;;;3.45;;
66597;SDS011;57424;53.128;6.406;2022-12-11T03:42:59;4.95;;;3.35;;
66597;SDS011;57424;53.128;6.406;2022-12-11T03:45:25;4.65;;;3.30;;
66597;SDS011;57424;53.128;6.406;2022-12-11T03:47:52;5.07;;;3.35;;
66597;SDS011;57424;53.128;6.406;2022-12-11T03:50:21;4.97;;;3.40;;
66597;SDS011;57424;53.128;6.406;2022-12-11T03:55:15;5.35;;;3.50;;
66597;SDS011;57424;53.128;6.406;2022-12-11T03:57:43;6.43;;;3.67;;
66597;SDS011;57424;53.128;6.406;2022-12-11T04:00:10;4.57;;;3.13;;
66597;SDS011;57424;53.128;6.406;2022-12-11T04:02:38;4.65;;;3.40;;
66597;SDS011;57424;53.128;6.406;2022-12-11T04:05:04;4.93;;;3.40;;
66597;SDS011;57424;53.128;6.406;2022-12-11T04:07:30;4.38;;;3.13;;
66597;SDS011;57424;53.128;6.406;2022-12-11T04:09:59;4.05;;;2.95;;
66597;SDS011;57424;53.128;6.406;2022-12-11T04:12:25;4.95;;;3.30;;
66597;SDS011;57424;53.128;6.406;2022-12-11T04:14:51;5.07;;;3.40;;
66597;SDS011;57424;53.128;6.406;2022-12-11T04:17:26;4.57;;;3.30;;
66597;SDS011;57424;53.128;6.406;2022-12-11T04:20:10;5.22;;;3.42;;
66597;SDS011;57424;53.128;6.406;2022-12-11T04:22:55;4.93;;;3.35;;
66597;SDS011;57424;53.128;6.406;2022-12-11T04:25:39;6.88;;;3.90;;
66597;SDS011;57424;53.128;6.406;2022-12-11T04:28:05;4.95;;;3.17;;
66597;SDS011;57424;53.128;6.406;2022-12-11T04:30:30;5.90;;;3.38;;
66597;SDS011;57424;53.128;6.406;2022-12-11T04:32:56;4.65;;;3.28;;
66597;SDS011;57424;53.128;6.406;2022-12-11T04:35:21;5.70;;;3.85;;
66597;SDS011;57424;53.128;6.406;2022-12-11T04:37:47;5.25;;;3.45;;
66597;SDS011;57424;53.128;6.406;2022-12-11T04:40:14;5.20;;;3.40;;
66597;SDS011;57424;53.128;6.406;2022-12-11T04:45:07;5.50;;;3.55;;
66597;SDS011;57424;53.128;6.406;2022-12-11T04:47:37;3.65;;;3.10;;
66597;SDS011;57424;53.128;6.406;2022-12-11T04:50:04;5.72;;;3.40;;
66597;SDS011;57424;53.128;6.406;2022-12-11T04:52:31;5.10;;;3.08;;
66597;SDS011;57424;53.128;6.406;2022-12-11T04:54:57;4.72;;;3.10;;
66597;SDS011;57424;53.128;6.406;2022-12-11T04:57:23;4.38;;;3.10;;
66597;SDS011;57424;53.128;6.406;2022-12-11T04:59:48;4.90;;;3.38;;
66597;SDS011;57424;53.128;6.406;2022-12-11T05:02:14;5.13;;;3.20;;
66597;SDS011;57424;53.128;6.406;2022-12-11T05:04:40;4.50;;;3.15;;
66597;SDS011;57424;53.128;6.406;2022-12-11T05:07:06;5.00;;;3.40;;
66597;SDS011;57424;53.128;6.406;2022-12-11T05:09:33;5.35;;;3.47;;
66597;SDS011;57424;53.128;6.406;2022-12-11T05:11:59;5.30;;;3.65;;
66597;SDS011;57424;53.128;6.406;2022-12-11T05:14:25;5.20;;;3.53;;
66597;SDS011;57424;53.128;6.406;2022-12-11T05:16:51;5.20;;;3.53;;
66597;SDS011;57424;53.128;6.406;2022-12-11T05:19:17;4.10;;;2.78;;
66597;SDS011;57424;53.128;6.406;2022-12-11T05:21:43;5.20;;;3.70;;
66597;SDS011;57424;53.128;6.406;2022-12-11T05:24:08;6.20;;;3.50;;
66597;SDS011;57424;53.128;6.406;2022-12-11T05:26:34;4.50;;;3.20;;
66597;SDS011;57424;53.128;6.406;2022-12-11T05:28:59;4.78;;;3.47;;
66597;SDS011;57424;53.128;6.406;2022-12-11T05:31:25;5.35;;;3.33;;
66597;SDS011;57424;53.128;6.406;2022-12-11T05:33:51;5.53;;;3.60;;
66597;SDS011;57424;53.128;6.406;2022-12-11T05:36:19;4.55;;;3.20;;
66597;SDS011;57424;53.128;6.406;2022-12-11T05:41:12;4.50;;;3.17;;
66597;SDS011;57424;53.128;6.406;2022-12-11T05:43:39;5.63;;;3.60;;
66597;SDS011;57424;53.128;6.406;2022-12-11T05:46:07;5.13;;;3.38;;
66597;SDS011;57424;53.128;6.406;2022-12-11T05:48:34;5.55;;;3.58;;
66597;SDS011;57424;53.128;6.406;2022-12-11T05:51:00;8.45;;;3.70;;
66597;SDS011;57424;53.128;6.406;2022-12-11T05:53:27;6.65;;;3.65;;
66597;SDS011;57424;53.128;6.406;2022-12-11T05:55:53;5.70;;;3.50;;
66597;SDS011;57424;53.128;6.406;2022-12-11T05:58:19;5.90;;;3.28;;
66597;SDS011;57424;53.128;6.406;2022-12-11T06:00:46;5.50;;;3.45;;
66597;SDS011;57424;53.128;6.406;2022-12-11T06:03:12;5.65;;;3.75;;
66597;SDS011;57424;53.128;6.406;2022-12-11T06:05:41;6.70;;;3.60;;
66597;SDS011;57424;53.128;6.406;2022-12-11T06:08:07;6.00;;;3.53;;
66597;SDS011;57424;53.128;6.406;2022-12-11T06:10:33;6.88;;;3.22;;
66597;SDS011;57424;53.128;6.406;2022-12-11T06:12:59;6.32;;;4.00;;
66597;SDS011;57424;53.128;6.406;2022-12-11T06:15:24;5.43;;;3.67;;
66597;SDS011;57424;53.128;6.406;2022-12-11T06:17:50;5.72;;;3.60;;
66597;SDS011;57424;53.128;6.406;2022-12-11T06:20:16;7.47;;;3.45;;
66597;SDS011;57424;53.128;6.406;2022-12-11T06:22:41;6.88;;;4.07;;
66597;SDS011;57424;53.128;6.406;2022-12-11T06:25:07;5.80;;;4.03;;
66597;SDS011;57424;53.128;6.406;2022-12-11T06:27:33;6.45;;;4.18;;
66597;SDS011;57424;53.128;6.406;2022-12-11T06:29:59;9.25;;;4.50;;
66597;SDS011;57424;53.128;6.406;2022-12-11T06:32:24;8.95;;;5.30;;
66597;SDS011;57424;53.128;6.406;2022-12-11T06:34:50;7.55;;;4.30;;
66597;SDS011;57424;53.128;6.406;2022-12-11T06:37:16;7.28;;;4.75;;
66597;SDS011;57424;53.128;6.406;2022-12-11T06:39:42;10.38;;;5.05;;
66597;SDS011;57424;53.128;6.406;2022-12-11T06:42:07;8.55;;;5.38;;
66597;SDS011;57424;53.128;6.406;2022-12-11T06:44:33;10.40;;;5.53;;
66597;SDS011;57424;53.128;6.406;2022-12-11T06:46:58;8.88;;;5.10;;
66597;SDS011;57424;53.128;6.406;2022-12-11T06:49:24;8.57;;;5.30;;
66597;SDS011;57424;53.128;6.406;2022-12-11T06:51:49;8.75;;;5.32;;
66597;SDS011;57424;53.128;6.406;2022-12-11T06:54:15;9.55;;;5.57;;
66597;SDS011;57424;53.128;6.406;2022-12-11T06:56:40;9.95;;;5.32;;
66597;SDS011;57424;53.128;6.406;2022-12-11T06:59:09;8.02;;;5.68;;
66597;SDS011;57424;53.128;6.406;2022-12-11T07:01:36;7.75;;;5.35;;
66597;SDS011;57424;53.128;6.406;2022-12-11T07:04:02;13.40;;;5.47;;
66597;SDS011;57424;53.128;6.406;2022-12-11T07:06:28;10.02;;;5.30;;
66597;SDS011;57424;53.128;6.406;2022-12-11T07:08:55;9.25;;;5.43;;
66597;SDS011;57424;53.128;6.406;2022-12-11T07:11:21;11.82;;;5.75;;
66597;SDS011;57424;53.128;6.406;2022-12-11T07:13:48;9.10;;;5.78;;
66597;SDS011;57424;53.128;6.406;2022-12-11T07:16:14;9.75;;;5.72;;
66597;SDS011;57424;53.128;6.406;2022-12-11T07:18:41;12.15;;;5.68;;
66597;SDS011;57424;53.128;6.406;2022-12-11T07:21:09;8.40;;;5.32;;
66597;SDS011;57424;53.128;6.406;2022-12-11T07:23:36;9.98;;;6.00;;
66597;SDS011;57424;53.128;6.406;2022-12-11T07:26:03;8.40;;;5.40;;
66597;SDS011;57424;53.128;6.406;2022-12-11T07:28:29;9.52;;;5.47;;
66597;SDS011;57424;53.128;6.406;2022-12-11T07:30:55;11.60;;;5.75;;
66597;SDS011;57424;53.128;6.406;2022-12-11T07:33:21;9.52;;;5.32;;
66597;SDS011;57424;53.128;6.406;2022-12-11T07:35:47;12.00;;;6.57;;
66597;SDS011;57424;53.128;6.406;2022-12-11T07:38:13;10.07;;;6.25;;
66597;SDS011;57424;53.128;6.406;2022-12-11T07:40:39;10.50;;;5.80;;
66597;SDS011;57424;53.128;6.406;2022-12-11T07:43:05;9.07;;;6.28;;
66597;SDS011;57424;53.128;6.406;2022-12-11T07:45:31;11.32;;;6.47;;
66597;SDS011;57424;53.128;6.406;2022-12-11T07:47:57;10.40;;;5.80;;
66597;SDS011;57424;53.128;6.406;2022-12-11T07:50:23;10.80;;;6.22;;
66597;SDS011;57424;53.128;6.406;2022-12-11T07:52:49;10.32;;;6.07;;
66597;SDS011;57424;53.128;6.406;2022-12-11T07:55:15;10.32;;;6.35;;
66597;SDS011;57424;53.128;6.406;2022-12-11T07:57:41;11.02;;;6.15;;
66597;SDS011;57424;53.128;6.406;2022-12-11T08:00:06;9.90;;;5.82;;
66597;SDS011;57424;53.128;6.406;2022-12-11T08:02:32;14.18;;;6.60;;
66597;SDS011;57424;53.128;6.406;2022-12-11T08:04:58;15.18;;;5.90;;
66597;SDS011;57424;53.128;6.406;2022-12-11T08:07:23;12.77;;;6.18;;
66597;SDS011;57424;53.128;6.406;2022-12-11T08:09:49;11.10;;;5.97;;
66597;SDS011;57424;53.128;6.406;2022-12-11T08:12:14;9.18;;;6.00;;
66597;SDS011;57424;53.128;6.406;2022-12-11T08:14:40;9.57;;;6.50;;
66597;SDS011;57424;53.128;6.406;2022-12-11T08:17:06;11.85;;;6.70;;
66597;SDS011;57424;53.128;6.406;2022-12-11T08:19:31;9.57;;;6.28;;
66597;SDS011;57424;53.128;6.406;2022-12-11T08:21:57;9.50;;;6.25;;
66597;SDS011;57424;53.128;6.406;2022-12-11T08:24:22;12.50;;;6.32;;
66597;SDS011;57424;53.128;6.406;2022-12-11T08:26:48;10.05;;;6.55;;
66597;SDS011;57424;53.128;6.406;2022-12-11T08:29:13;10.77;;;6.28;;
66597;SDS011;57424;53.128;6.406;2022-12-11T08:31:39;11.38;;;5.80;;
66597;SDS011;57424;53.128;6.406;2022-12-11T08:34:05;8.77;;;5.78;;
66597;SDS011;57424;53.128;6.406;2022-12-11T08:36:31;11.60;;;5.93;;
66597;SDS011;57424;53.128;6.406;2022-12-11T08:38:57;10.90;;;6.28;;
66597;SDS011;57424;53.128;6.406;2022-12-11T08:41:24;10.75;;;5.78;;
66597;SDS011;57424;53.128;6.406;2022-12-11T08:43:51;10.90;;;5.88;;
66597;SDS011;57424;53.128;6.406;2022-12-11T08:46:19;10.63;;;6.20;;
66597;SDS011;57424;53.128;6.406;2022-12-11T08:48:46;10.98;;;6.07;;
66597;SDS011;57424;53.128;6.406;2022-12-11T08:51:12;9.48;;;6.63;;
66597;SDS011;57424;53.128;6.406;2022-12-11T08:53:39;12.18;;;5.97;;
66597;SDS011;57424;53.128;6.406;2022-12-11T08:56:06;11.38;;;5.45;;
66597;SDS011;57424;53.128;6.406;2022-12-11T08:58:36;10.55;;;5.70;;
66597;SDS011;57424;53.128;6.406;2022-12-11T09:01:05;10.20;;;6.10;;
66597;SDS011;57424;53.128;6.406;2022-12-11T09:03:32;10.40;;;6.25;;
66597;SDS011;57424;53.128;6.406;2022-12-11T09:05:58;10.48;;;6.15;;
66597;SDS011;57424;53.128;6.406;2022-12-11T09:08:24;11.57;;;6.40;;
66597;SDS011;57424;53.128;6.406;2022-12-11T09:10:49;10.25;;;6.45;;
66597;SDS011;57424;53.128;6.406;2022-12-11T09:13:15;18.05;;;6.85;;
66597;SDS011;57424;53.128;6.406;2022-12-11T09:15:40;14.68;;;6.00;;
66597;SDS011;57424;53.128;6.406;2022-12-11T09:18:06;13.80;;;6.30;;
66597;SDS011;57424;53.128;6.406;2022-12-11T09:20:32;13.75;;;5.78;;
66597;SDS011;57424;53.128;6.406;2022-12-11T09:22:58;10.90;;;5.85;;
66597;SDS011;57424;53.128;6.406;2022-12-11T09:25:23;9.25;;;6.32;;
66597;SDS011;57424;53.128;6.406;2022-12-11T09:27:49;9.40;;;5.53;;
66597;SDS011;57424;53.128;6.406;2022-12-11T09:30:14;8.68;;;5.78;;
66597;SDS011;57424;53.128;6.406;2022-12-11T09:32:40;11.52;;;6.65;;
66597;SDS011;57424;53.128;6.406;2022-12-11T09:35:06;12.68;;;6.50;;
66597;SDS011;57424;53.128;6.406;2022-12-11T09:37:32;10.45;;;6.43;;
66597;SDS011;57424;53.128;6.406;2022-12-11T09:39:58;9.13;;;5.50;;
66597;SDS011;57424;53.128;6.406;2022-12-11T09:42:29;9.95;;;5.97;;
66597;SDS011;57424;53.128;6.406;2022-12-11T09:45:04;9.05;;;5.97;;
66597;SDS011;57424;53.128;6.406;2022-12-11T09:47:41;10.10;;;5.75;;
66597;SDS011;57424;53.128;6.406;2022-12-11T09:55:20;14.25;;;5.70;;
66597;SDS011;57424;53.128;6.406;2022-12-11T10:00:38;10.90;;;5.55;;
66597;SDS011;57424;53.128;6.406;2022-12-11T10:03:21;12.50;;;6.00;;
66597;SDS011;57424;53.128;6.406;2022-12-11T10:11:57;9.38;;;6.03;;
66597;SDS011;57424;53.128;6.406;2022-12-11T10:17:26;8.07;;;5.68;;
66597;SDS011;57424;53.128;6.406;2022-12-11T10:19:55;8.80;;;5.57;;
66597;SDS011;57424;53.128;6.406;2022-12-11T10:22:28;9.82;;;6.07;;
66597;SDS011;57424;53.128;6.406;2022-12-11T10:24:57;10.27;;;6.07;;
66597;SDS011;57424;53.128;6.406;2022-12-11T10:27:29;9.45;;;6.15;;
66597;SDS011;57424;53.128;6.406;2022-12-11T10:38:14;8.32;;;5.70;;
66597;SDS011;57424;53.128;6.406;2022-12-11T10:40:54;10.15;;;5.70;;
66597;SDS011;57424;53.128;6.406;2022-12-11T10:43:36;11.10;;;6.32;;
66597;SDS011;57424;53.128;6.406;2022-12-11T10:46:13;8.77;;;5.90;;
66597;SDS011;57424;53.128;6.406;2022-12-11T10:48:54;10.93;;;5.97;;
66597;SDS011;57424;53.128;6.406;2022-12-11T10:51:21;8.90;;;5.70;;
66597;SDS011;57424;53.128;6.406;2022-12-11T10:53:52;10.70;;;6.50;;
66597;SDS011;57424;53.128;6.406;2022-12-11T10:56:25;10.18;;;5.75;;
66597;SDS011;57424;53.128;6.406;2022-12-11T10:58:52;13.30;;;6.03;;
66597;SDS011;57424;53.128;6.406;2022-12-11T11:01:21;10.30;;;6.25;;
66597;SDS011;57424;53.128;6.406;2022-12-11T11:04:02;9.65;;;5.63;;
66597;SDS011;57424;53.128;6.406;2022-12-11T11:06:30;11.85;;;6.00;;
66597;SDS011;57424;53.128;6.406;2022-12-11T11:08:57;8.68;;;5.72;;
66597;SDS011;57424;53.128;6.406;2022-12-11T11:11:34;9.73;;;6.00;;
66597;SDS011;57424;53.128;6.406;2022-12-11T11:16:44;10.52;;;5.93;;
66597;SDS011;57424;53.128;6.406;2022-12-11T11:21:46;11.02;;;6.35;;
66597;SDS011;57424;53.128;6.406;2022-12-11T11:24:28;11.85;;;6.82;;
66597;SDS011;57424;53.128;6.406;2022-12-11T11:26:58;8.55;;;6.00;;
66597;SDS011;57424;53.128;6.406;2022-12-11T11:29:26;10.15;;;5.68;;
66597;SDS011;57424;53.128;6.406;2022-12-11T11:31:57;13.48;;;5.82;;
66597;SDS011;57424;53.128;6.406;2022-12-11T11:34:37;8.52;;;5.93;;
66597;SDS011;57424;53.128;6.406;2022-12-11T11:37:02;10.25;;;5.88;;
66597;SDS011;57424;53.128;6.406;2022-12-11T11:39:31;15.05;;;7.00;;
66597;SDS011;57424;53.128;6.406;2022-12-11T11:42:03;20.00;;;8.75;;
66597;SDS011;57424;53.128;6.406;2022-12-11T11:44:46;17.40;;;11.27;;
66597;SDS011;57424;53.128;6.406;2022-12-11T11:47:23;16.35;;;12.20;;
66597;SDS011;57424;53.128;6.406;2022-12-11T11:49:55;15.90;;;13.95;;
66597;SDS011;57424;53.128;6.406;2022-12-11T12:00:27;20.15;;;17.40;;
66597;SDS011;57424;53.128;6.406;2022-12-11T12:02:58;23.90;;;18.57;;
66597;SDS011;57424;53.128;6.406;2022-12-11T12:05:30;21.20;;;18.75;;
66597;SDS011;57424;53.128;6.406;2022-12-11T12:16:07;23.85;;;19.58;;
66597;SDS011;57424;53.128;6.406;2022-12-11T12:21:50;21.60;;;18.10;;
66597;SDS011;57424;53.128;6.406;2022-12-11T12:26:56;26.67;;;17.42;;
66597;SDS011;57424;53.128;6.406;2022-12-11T12:35:09;22.75;;;16.52;;
66597;SDS011;57424;53.128;6.406;2022-12-11T12:37:53;23.45;;;16.58;;
66597;SDS011;57424;53.128;6.406;2022-12-11T12:40:29;23.15;;;16.30;;
66597;SDS011;57424;53.128;6.406;2022-12-11T12:43:03;18.73;;;15.65;;
66597;SDS011;57424;53.128;6.406;2022-12-11T12:45:58;21.65;;;15.85;;
66597;SDS011;57424;53.128;6.406;2022-12-11T12:48:36;21.00;;;16.27;;
66597;SDS011;57424;53.128;6.406;2022-12-11T12:51:01;25.92;;;14.70;;
66597;SDS011;57424;53.128;6.406;2022-12-11T12:53:29;21.75;;;14.55;;
66597;SDS011;57424;53.128;6.406;2022-12-11T12:55:58;21.15;;;13.60;;
66597;SDS011;57424;53.128;6.406;2022-12-11T13:01:09;18.00;;;13.35;;
66597;SDS011;57424;53.128;6.406;2022-12-11T13:09:19;19.38;;;13.52;;
66597;SDS011;57424;53.128;6.406;2022-12-11T13:11:51;17.80;;;12.55;;
66597;SDS011;57424;53.128;6.406;2022-12-11T13:14:22;19.00;;;12.68;;
66597;SDS011;57424;53.128;6.406;2022-12-11T13:16:52;17.92;;;12.32;;
66597;SDS011;57424;53.128;6.406;2022-12-11T13:19:47;19.58;;;12.52;;
66597;SDS011;57424;53.128;6.406;2022-12-11T13:22:27;19.35;;;11.68;;
66597;SDS011;57424;53.128;6.406;2022-12-11T13:24:59;20.08;;;12.05;;
66597;SDS011;57424;53.128;6.406;2022-12-11T13:27:40;17.58;;;11.57;;
66597;SDS011;57424;53.128;6.406;2022-12-11T13:32:40;24.67;;;11.45;;
66597;SDS011;57424;53.128;6.406;2022-12-11T13:35:13;15.80;;;10.63;;
66597;SDS011;57424;53.128;6.406;2022-12-11T13:37:44;15.27;;;10.18;;
66597;SDS011;57424;53.128;6.406;2022-12-11T13:40:15;17.95;;;11.20;;
66597;SDS011;57424;53.128;6.406;2022-12-11T13:43:00;18.00;;;11.05;;
66597;SDS011;57424;53.128;6.406;2022-12-11T13:45:42;15.95;;;10.13;;
66597;SDS011;57424;53.128;6.406;2022-12-11T13:48:28;19.77;;;10.73;;
66597;SDS011;57424;53.128;6.406;2022-12-11T13:51:00;17.52;;;11.07;;
66597;SDS011;57424;53.128;6.406;2022-12-11T13:53:27;15.35;;;10.27;;
66597;SDS011;57424;53.128;6.406;2022-12-11T13:56:03;17.95;;;11.00;;
66597;SDS011;57424;53.128;6.406;2022-12-11T13:58:36;14.15;;;10.43;;
66597;SDS011;57424;53.128;6.406;2022-12-11T14:01:09;15.85;;;10.68;;
66597;SDS011;57424;53.128;6.406;2022-12-11T14:03:38;15.13;;;9.23;;
66597;SDS011;57424;53.128;6.406;2022-12-11T14:08:34;17.55;;;9.57;;
66597;SDS011;57424;53.128;6.406;2022-12-11T14:11:03;15.68;;;9.30;;
66597;SDS011;57424;53.128;6.406;2022-12-11T14:13:34;15.23;;;9.50;;
66597;SDS011;57424;53.128;6.406;2022-12-11T14:16:03;15.02;;;9.23;;
66597;SDS011;57424;53.128;6.406;2022-12-11T14:18:31;18.63;;;10.48;;
66597;SDS011;57424;53.128;6.406;2022-12-11T14:21:00;15.82;;;9.98;;
66597;SDS011;57424;53.128;6.406;2022-12-11T14:23:29;15.43;;;9.70;;
66597;SDS011;57424;53.128;6.406;2022-12-11T14:28:37;13.77;;;9.07;;
66597;SDS011;57424;53.128;6.406;2022-12-11T14:31:06;16.27;;;8.65;;
66597;SDS011;57424;53.128;6.406;2022-12-11T14:33:34;13.18;;;8.93;;
66597;SDS011;57424;53.128;6.406;2022-12-11T14:36:02;13.82;;;8.43;;
66597;SDS011;57424;53.128;6.406;2022-12-11T14:38:33;17.98;;;8.35;;
66597;SDS011;57424;53.128;6.406;2022-12-11T14:41:06;13.90;;;8.68;;
66597;SDS011;57424;53.128;6.406;2022-12-11T14:43:44;17.75;;;9.27;;
66597;SDS011;57424;53.128;6.406;2022-12-11T14:46:18;15.80;;;8.35;;
66597;SDS011;57424;53.128;6.406;2022-12-11T14:48:51;16.25;;;9.30;;
66597;SDS011;57424;53.128;6.406;2022-12-11T14:51:21;15.40;;;8.82;;
66597;SDS011;57424;53.128;6.406;2022-12-11T14:53:49;12.60;;;9.13;;
66597;SDS011;57424;53.128;6.406;2022-12-11T14:56:19;15.45;;;8.80;;
66597;SDS011;57424;53.128;6.406;2022-12-11T14:58:54;15.15;;;9.02;;
66597;SDS011;57424;53.128;6.406;2022-12-11T15:01:31;13.77;;;8.75;;
66597;SDS011;57424;53.128;6.406;2022-12-11T15:11:44;12.68;;;9.13;;
66597;SDS011;57424;53.128;6.406;2022-12-11T15:14:12;13.45;;;8.68;;
66597;SDS011;57424;53.128;6.406;2022-12-11T15:16:39;13.38;;;8.45;;
66597;SDS011;57424;53.128;6.406;2022-12-11T15:19:06;13.35;;;8.77;;
66597;SDS011;57424;53.128;6.406;2022-12-11T15:21:41;12.52;;;9.23;;
66597;SDS011;57424;53.128;6.406;2022-12-11T15:24:17;11.88;;;8.50;;
66597;SDS011;57424;53.128;6.406;2022-12-11T15:26:52;13.63;;;8.65;;
66597;SDS011;57424;53.128;6.406;2022-12-11T15:29:35;12.77;;;8.75;;
66597;SDS011;57424;53.128;6.406;2022-12-11T15:32:11;12.65;;;8.27;;
66597;SDS011;57424;53.128;6.406;2022-12-11T15:34:50;13.50;;;8.60;;
66597;SDS011;57424;53.128;6.406;2022-12-11T15:39:58;13.27;;;8.27;;
66597;SDS011;57424;53.128;6.406;2022-12-11T15:42:26;14.18;;;8.57;;
66597;SDS011;57424;53.128;6.406;2022-12-11T15:44:55;11.70;;;7.95;;
66597;SDS011;57424;53.128;6.406;2022-12-11T15:47:23;11.45;;;8.05;;
66597;SDS011;57424;53.128;6.406;2022-12-11T15:49:52;14.18;;;8.10;;
66597;SDS011;57424;53.128;6.406;2022-12-11T15:52:27;12.73;;;8.43;;
66597;SDS011;57424;53.128;6.406;2022-12-11T15:54:52;12.43;;;8.18;;
66597;SDS011;57424;53.128;6.406;2022-12-11T15:57:19;11.05;;;8.02;;
66597;SDS011;57424;53.128;6.406;2022-12-11T15:59:47;18.42;;;8.82;;
66597;SDS011;57424;53.128;6.406;2022-12-11T16:02:14;13.90;;;7.85;;
66597;SDS011;57424;53.128;6.406;2022-12-11T16:04:40;11.48;;;8.00;;
66597;SDS011;57424;53.128;6.406;2022-12-11T16:07:16;10.32;;;7.18;;
66597;SDS011;57424;53.128;6.406;2022-12-11T16:09:44;15.57;;;7.60;;
66597;SDS011;57424;53.128;6.406;2022-12-11T16:12:10;10.38;;;7.55;;
66597;SDS011;57424;53.128;6.406;2022-12-11T16:14:37;10.70;;;7.37;;
66597;SDS011;57424;53.128;6.406;2022-12-11T16:17:05;10.90;;;7.55;;
66597;SDS011;57424;53.128;6.406;2022-12-11T16:19:31;12.27;;;8.07;;
66597;SDS011;57424;53.128;6.406;2022-12-11T16:21:57;11.75;;;7.60;;
66597;SDS011;57424;53.128;6.406;2022-12-11T16:24:23;10.65;;;7.05;;
66597;SDS011;57424;53.128;6.406;2022-12-11T16:26:49;10.77;;;7.32;;
66597;SDS011;57424;53.128;6.406;2022-12-11T16:29:14;12.73;;;7.78;;
66597;SDS011;57424;53.128;6.406;2022-12-11T16:31:40;9.65;;;7.35;;
66597;SDS011;57424;53.128;6.406;2022-12-11T16:34:07;10.00;;;7.45;;
66597;SDS011;57424;53.128;6.406;2022-12-11T16:36:32;10.48;;;6.85;;
66597;SDS011;57424;53.128;6.406;2022-12-11T16:38:58;11.65;;;7.13;;